Jackson, MN

3:53 AM CDT on April 26, 2017 (GMT -0500)
Jackson Municipal

Weather History for KMJQ - April, 2013

Change the Weather History Date:

Sunday, April 21, 2013

  Actual Average Record
Temperature  
Mean Temperature 45 °F -  
Max Temperature 55 °F 57 °F 82 °F (2007)
Min Temperature 35 °F 35 °F 30 °F (2011)
Degree Days  
Heating Degree Days 20    
Moisture  
Dew Point 36 °F    
Average Humidity 77    
Maximum Humidity 93    
Minimum Humidity 58    
Precipitation  
Precipitation 0.01 in - - ()
Sea Level Pressure  
Sea Level Pressure 30.10 in    
Wind  
Wind Speed 12 mph (South)    
Max Wind Speed 24 mph    
Max Gust Speed 31 mph    
Visibility 10 miles    
Events Rain    
Averages and records for this station are not official NWS values.
T = Trace of Precipitation, MM = Missing Value Source: NWS Daily Summary

Daily Weather History Graph

Daily Weather History Graph

Search for Another Location

Airport or City:

Trip Planner

Search our weather history database for the weather conditions in past years. The results will help you decide how hot, cold, wet, or windy it might be!

Date:

Astronomy

Apr. 21, 2013 Rise Set
Actual Time 6:27 AM CDT 8:10 PM CDT
Civil Twilight 5:56 AM CDT 8:41 PM CDT
Nautical Twilight 5:19 AM CDT 9:18 PM CDT
Astronomical Twilight 4:39 AM CDT 9:58 PM CDT
Moon 3:49 PM CDT (4/21) 3:58 AM CDT (4/21)
Length of Visible Light 14h 44m
Length of Day
13h 43m
Waxing Gibbous, 80% of the Moon is Illuminated
Apr 21
Waxing Gibbous
Apr 25
Full
May 2
Last Quarter
May 9
New
May 17
First Quarter

Hourly Weather History & Observations

Time (CDT) Temp. Windchill Dew Point Humidity Pressure Visibility Wind Dir Wind Speed Gust Speed Precip Events Conditions
12:12 AM 35.6 °F 28.6 °F 30.2 °F 81% 30.21 in 10.0 mi ESE 9.2 mph - N/A   Overcast
12:32 AM 35.6 °F 29.2 °F 30.2 °F 81% 30.20 in 10.0 mi ESE 8.1 mph - N/A   Overcast
12:52 AM 35.6 °F 29.9 °F 30.2 °F 81% 30.20 in 10.0 mi ESE 6.9 mph - N/A   Overcast
1:12 AM 35.6 °F 29.9 °F 30.2 °F 81% 30.21 in 10.0 mi ESE 6.9 mph - N/A   Overcast
1:33 AM 35.6 °F 29.2 °F 30.2 °F 81% 30.20 in 10.0 mi ESE 8.1 mph - N/A   Overcast
1:52 AM 35.6 °F 29.2 °F 30.2 °F 81% 30.20 in 10.0 mi ESE 8.1 mph - N/A   Overcast
2:12 AM 35.6 °F 29.2 °F 30.2 °F 81% 30.19 in 10.0 mi ESE 8.1 mph - N/A   Overcast
2:33 AM 35.6 °F 28.6 °F 30.2 °F 81% 30.19 in 10.0 mi ESE 9.2 mph - N/A   Overcast
2:52 AM 35.6 °F 29.2 °F 30.2 °F 81% 30.18 in 10.0 mi ESE 8.1 mph - N/A   Overcast
3:12 AM 35.6 °F 28.0 °F 30.2 °F 81% 30.17 in 10.0 mi ESE 10.4 mph - N/A   Overcast
3:33 AM 35.6 °F 27.1 °F 30.2 °F 81% 30.16 in 10.0 mi ESE 12.7 mph - N/A   Overcast
3:52 AM 35.6 °F 27.5 °F 30.2 °F 81% 30.16 in 10.0 mi SE 11.5 mph - N/A   Overcast
4:12 AM 35.6 °F 27.1 °F 30.2 °F 81% 30.15 in 10.0 mi SE 12.7 mph - N/A   Overcast
4:33 AM 35.6 °F 26.2 °F 30.2 °F 81% 30.14 in 10.0 mi SE 15.0 mph - N/A   Overcast
4:52 AM 35.6 °F 26.2 °F 30.2 °F 81% 30.14 in 10.0 mi SE 15.0 mph - N/A   Overcast
5:12 AM 35.6 °F 27.1 °F 30.2 °F 81% 30.14 in 10.0 mi SE 12.7 mph - N/A   Overcast
5:33 AM 35.6 °F 27.5 °F 32.0 °F 87% 30.14 in 10.0 mi SE 11.5 mph - N/A   Overcast
5:52 AM 35.6 °F 27.1 °F 32.0 °F 87% 30.13 in 10.0 mi SE 12.7 mph 18.4 mph N/A   Light Drizzle
6:12 AM 35.6 °F 25.5 °F 32.0 °F 87% 30.14 in 10.0 mi SSE 17.3 mph 23.0 mph N/A Rain Light Rain
6:33 AM 35.6 °F 25.9 °F 32.0 °F 87% 30.13 in 10.0 mi SSE 16.1 mph 23.0 mph N/A   Light Drizzle
6:52 AM 35.6 °F 25.9 °F 32.0 °F 87% 30.14 in 10.0 mi SSE 16.1 mph - N/A   Overcast
7:12 AM 35.6 °F 26.6 °F 32.0 °F 87% 30.13 in 10.0 mi SE 13.8 mph - N/A   Scattered Clouds
7:33 AM 35.6 °F 27.1 °F 32.0 °F 87% 30.13 in 10.0 mi SSE 12.7 mph 17.3 mph N/A   Clear
7:52 AM 35.6 °F 26.6 °F 32.0 °F 87% 30.13 in 10.0 mi SE 13.8 mph 19.6 mph N/A   Clear
8:13 AM 37.4 °F 28.5 °F 32.0 °F 81% 30.12 in 10.0 mi SE 15.0 mph - N/A   Clear
8:32 AM 37.4 °F 28.2 °F 32.0 °F 81% 30.12 in 10.0 mi SSE 16.1 mph 21.9 mph N/A   Clear
8:52 AM 39.2 °F 30.5 °F 32.0 °F 75% 30.11 in 10.0 mi SE 16.1 mph 20.7 mph N/A   Clear
9:12 AM 41.0 °F 32.5 °F 32.0 °F 70% 30.11 in 10.0 mi SSE 17.3 mph 21.9 mph N/A   Scattered Clouds
9:32 AM 42.8 °F 34.3 °F 32.0 °F 66% 30.10 in 10.0 mi SSE 19.6 mph 24.2 mph N/A   Scattered Clouds
9:52 AM 42.8 °F 34.8 °F 33.8 °F 70% 30.10 in 10.0 mi SSE 17.3 mph 23.0 mph N/A   Mostly Cloudy
10:12 AM 44.6 °F 36.1 °F 33.8 °F 66% 30.09 in 10.0 mi South 21.9 mph 27.6 mph N/A   Mostly Cloudy
10:32 AM 44.6 °F 37.8 °F 33.8 °F 66% 30.09 in 10.0 mi South 15.0 mph 24.2 mph N/A   Scattered Clouds
10:53 AM 44.6 °F 35.9 °F 33.8 °F 66% 30.08 in 10.0 mi SSE 23.0 mph - N/A   Clear
11:12 AM 46.4 °F 39.0 °F 35.6 °F 66% 30.07 in 10.0 mi South 19.6 mph 25.3 mph N/A   Clear
11:32 AM 46.4 °F 39.0 °F 35.6 °F 66% 30.07 in 10.0 mi South 19.6 mph 27.6 mph N/A   Clear
11:53 AM 50.0 °F - 37.4 °F 62% 30.06 in 10.0 mi South 21.9 mph 28.8 mph N/A   Clear
12:12 PM 50.0 °F - 37.4 °F 62% 30.05 in 10.0 mi South 16.1 mph 27.6 mph N/A   Clear
12:32 PM 50.0 °F - 37.4 °F 62% 30.04 in 10.0 mi South 20.7 mph 31.1 mph N/A   Clear
12:53 PM 51.8 °F - 37.4 °F 58% 30.03 in 10.0 mi South 24.2 mph 31.1 mph N/A   Scattered Clouds
1:12 PM 51.8 °F - 39.2 °F 62% 30.03 in 10.0 mi South 18.4 mph 26.5 mph N/A   Scattered Clouds
1:32 PM 53.6 °F - 41.0 °F 62% 30.02 in 10.0 mi South 19.6 mph 24.2 mph N/A   Mostly Cloudy
1:53 PM 53.6 °F - 41.0 °F 62% 30.01 in 10.0 mi South 16.1 mph 25.3 mph N/A   Overcast
2:12 PM 53.6 °F - 41.0 °F 62% 30.01 in 10.0 mi South 16.1 mph 23.0 mph N/A   Mostly Cloudy
2:32 PM 53.6 °F - 41.0 °F 62% 30.01 in 10.0 mi South 17.3 mph 23.0 mph N/A   Overcast
2:52 PM 55.4 °F - 42.8 °F 63% 30.01 in 10.0 mi South 13.8 mph 18.4 mph N/A   Overcast
3:12 PM 55.4 °F - 41.0 °F 58% 30.01 in 10.0 mi SW 12.7 mph - N/A   Overcast
3:33 PM 53.6 °F - 42.8 °F 67% 30.01 in 10.0 mi SSW 9.2 mph - N/A   Light Drizzle
3:52 PM 53.6 °F - 42.8 °F 67% 30.00 in 10.0 mi SW 12.7 mph - N/A   Overcast
4:12 PM 53.6 °F - 44.6 °F 72% 30.02 in 7.0 mi SW 13.8 mph - N/A Rain Rain
4:33 PM 51.8 °F - 44.6 °F 76% 30.01 in 7.0 mi SW 12.7 mph 17.3 mph 0.01 in   Light Drizzle
4:52 PM 51.8 °F - 44.6 °F 76% 30.01 in 10.0 mi SW 9.2 mph - 0.01 in   Overcast
5:12 PM 50.0 °F - 44.6 °F 82% 30.01 in 10.0 mi WSW 6.9 mph - N/A   Overcast
5:33 PM 50.0 °F - 44.6 °F 82% 30.03 in 10.0 mi West 15.0 mph 20.7 mph N/A Rain Light Rain
5:52 PM 50.0 °F - 44.6 °F 82% 30.03 in 10.0 mi West 10.4 mph - N/A Rain Light Rain
6:13 PM 50.0 °F - 44.6 °F 82% 30.03 in 10.0 mi West 8.1 mph - N/A   Overcast
6:32 PM 50.0 °F - 42.8 °F 76% 30.03 in 10.0 mi West 5.8 mph - N/A   Overcast
6:52 PM 50.0 °F - 42.8 °F 76% 30.05 in 10.0 mi West 9.2 mph - N/A   Overcast
7:12 PM 48.2 °F - 42.8 °F 82% 30.06 in 10.0 mi NW 15.0 mph 19.6 mph N/A   Overcast
7:32 PM 46.4 °F 40.7 °F 41.0 °F 81% 30.07 in 10.0 mi NW 12.7 mph - N/A   Overcast
7:52 PM 44.6 °F 37.4 °F 41.0 °F 87% 30.08 in 10.0 mi NW 16.1 mph - N/A   Overcast
8:13 PM 44.6 °F 38.1 °F 39.2 °F 81% 30.10 in 10.0 mi NW 13.8 mph 19.6 mph N/A   Overcast
8:32 PM 42.8 °F 38.0 °F 37.4 °F 81% 30.10 in 10.0 mi WNW 8.1 mph - N/A   Overcast
8:52 PM 42.8 °F 38.6 °F 37.4 °F 81% 30.11 in 10.0 mi NW 6.9 mph - N/A   Overcast
9:13 PM 42.8 °F 34.5 °F 37.4 °F 81% 30.12 in 10.0 mi NW 18.4 mph - N/A   Overcast
9:32 PM 39.2 °F 30.8 °F 35.6 °F 87% 30.14 in 7.0 mi NW 15.0 mph 23.0 mph N/A   Overcast
9:52 PM 37.4 °F 29.3 °F 35.6 °F 93% 30.15 in 10.0 mi NNW 12.7 mph - N/A   Mostly Cloudy
10:13 PM 37.4 °F 29.8 °F 33.8 °F 87% 30.15 in 10.0 mi NNW 11.5 mph 17.3 mph N/A   Mostly Cloudy
10:32 PM 37.4 °F 32.1 °F 33.8 °F 87% 30.15 in 10.0 mi NNW 6.9 mph - N/A   Overcast
10:52 PM 37.4 °F 30.8 °F 33.8 °F 87% 30.16 in 10.0 mi NNW 9.2 mph 16.1 mph N/A   Overcast
11:12 PM 37.4 °F 32.1 °F 33.8 °F 87% 30.16 in 7.0 mi North 6.9 mph 18.4 mph N/A   Overcast
11:32 PM 37.4 °F 32.1 °F 33.8 °F 87% 30.15 in 7.0 mi NNW 6.9 mph - N/A   Overcast
11:53 PM 37.4 °F 30.3 °F 33.8 °F 87% 30.16 in 7.0 mi NNW 10.4 mph 16.1 mph N/A   Overcast